createdAt,value
2022-10-18T00:00:50.375Z,28.80
2022-10-18T00:03:17.489Z,28.40
2022-10-18T00:05:44.712Z,27.45
2022-10-18T00:08:11.828Z,28.95
2022-10-18T00:10:39.035Z,30.52
2022-10-18T00:13:07.019Z,30.23
2022-10-18T00:15:34.434Z,32.37
2022-10-18T00:18:01.591Z,35.05
2022-10-18T00:20:28.960Z,31.43
2022-10-18T00:22:56.484Z,31.55
2022-10-18T00:25:23.610Z,35.17
2022-10-18T00:27:50.775Z,35.05
2022-10-18T00:30:17.968Z,31.17
2022-10-18T00:32:48.090Z,37.23
2022-10-18T00:35:15.330Z,36.55
2022-10-18T00:37:42.492Z,41.65
2022-10-18T00:40:10.217Z,45.72
2022-10-18T00:42:38.187Z,43.97
2022-10-18T00:45:23.008Z,46.63
2022-10-18T00:47:59.907Z,38.90
2022-10-18T00:50:31.043Z,46.83
2022-10-18T00:53:01.389Z,46.10
2022-10-18T00:55:31.734Z,42.67
2022-10-18T00:57:59.796Z,41.65
2022-10-18T01:00:27.030Z,39.13
2022-10-18T01:02:54.192Z,38.33
2022-10-18T01:05:21.355Z,35.97
2022-10-18T01:08:16.482Z,40.40
2022-10-18T01:11:01.965Z,35.40
2022-10-18T01:13:29.019Z,41.92
2022-10-18T01:16:15.981Z,37.75
2022-10-18T01:18:52.566Z,38.65
2022-10-18T01:21:22.466Z,46.90
2022-10-18T01:23:52.371Z,44.33
2022-10-18T01:26:41.514Z,49.88
2022-10-18T01:29:37.552Z,48.75
2022-10-18T01:32:12.109Z,55.50
2022-10-18T01:34:41.410Z,56.33
2022-10-18T01:37:13.171Z,52.50
2022-10-18T01:39:44.964Z,63.00
2022-10-18T01:42:15.575Z,58.30
2022-10-18T01:44:45.404Z,52.90
2022-10-18T01:47:14.207Z,58.55
2022-10-18T01:49:41.382Z,45.70
2022-10-18T01:52:14.094Z,47.63
2022-10-18T01:54:43.838Z,66.27
2022-10-18T01:57:16.819Z,64.75
2022-10-18T02:00:06.001Z,51.87
2022-10-18T02:02:53.738Z,54.88
2022-10-18T02:05:43.805Z,56.90
2022-10-18T02:08:23.747Z,66.95
2022-10-18T02:10:59.818Z,56.13
2022-10-18T02:13:41.424Z,77.78
2022-10-18T02:16:13.205Z,98.77
2022-10-18T02:18:45.825Z,97.82
2022-10-18T02:21:15.677Z,89.55
2022-10-18T02:23:45.545Z,51.83
2022-10-18T02:26:14.800Z,68.25
2022-10-18T02:28:42.458Z,57.20
2022-10-18T02:31:09.528Z,68.20
2022-10-18T02:34:07.793Z,117.88
2022-10-18T02:36:41.578Z,123.68
2022-10-18T02:39:14.712Z,73.43
2022-10-18T02:41:42.407Z,75.95
2022-10-18T02:44:10.649Z,64.83
2022-10-18T02:46:38.633Z,107.03
2022-10-18T02:49:05.805Z,81.50
2022-10-18T02:51:33.478Z,83.30
2022-10-18T02:54:00.646Z,69.25
2022-10-18T02:56:27.832Z,55.85
2022-10-18T02:58:55.045Z,128.63
2022-10-18T03:01:22.388Z,191.15
2022-10-18T03:03:49.544Z,99.07
2022-10-18T03:06:16.737Z,115.22
2022-10-18T03:08:43.851Z,64.15
2022-10-18T03:11:11.003Z,121.17
2022-10-18T03:13:38.091Z,121.90
2022-10-18T03:16:05.381Z,325.48
2022-10-18T03:18:32.523Z,249.30
2022-10-18T03:21:03.338Z,101.25
2022-10-18T03:23:30.449Z,98.67
2022-10-18T03:25:57.615Z,127.88
2022-10-18T03:28:24.912Z,180.40
2022-10-18T03:30:52.077Z,461.35
2022-10-18T03:33:19.433Z,483.95
2022-10-18T03:35:46.541Z,364.98
2022-10-18T03:38:13.750Z,256.63
2022-10-18T03:40:40.867Z,526.55
2022-10-18T03:43:07.978Z,611.47
2022-10-18T03:45:35.233Z,374.63
2022-10-18T03:48:02.386Z,401.73
2022-10-18T03:50:29.510Z,424.77
2022-10-18T03:52:56.683Z,364.65
2022-10-18T03:55:24.105Z,369.63
2022-10-18T03:57:51.206Z,316.65
2022-10-18T04:00:18.354Z,328.65
2022-10-18T04:02:45.571Z,294.80
2022-10-18T04:05:14.022Z,298.13
2022-10-18T04:07:41.132Z,278.25
2022-10-18T04:10:08.512Z,355.48
2022-10-18T04:12:35.809Z,430.13
2022-10-18T04:15:03.510Z,300.80
2022-10-18T04:17:30.861Z,361.35
2022-10-18T04:19:58.176Z,267.88
2022-10-18T04:22:25.378Z,261.67
2022-10-18T04:24:56.794Z,205.57
2022-10-18T04:27:24.129Z,209.60
2022-10-18T04:29:51.269Z,267.85
2022-10-18T04:32:18.445Z,202.50
2022-10-18T04:34:45.636Z,188.90
2022-10-18T04:37:12.787Z,169.15
2022-10-18T04:39:39.931Z,153.77
2022-10-18T04:42:07.077Z,180.10
2022-10-18T04:44:34.367Z,148.88
2022-10-18T04:47:01.517Z,196.07
2022-10-18T04:49:28.658Z,99.60
2022-10-18T04:51:55.763Z,173.73
2022-10-18T04:54:25.186Z,92.82
2022-10-18T04:56:55.019Z,129.80
2022-10-18T04:59:22.218Z,103.72
2022-10-18T05:01:49.425Z,348.33
2022-10-18T05:04:16.645Z,214.23
2022-10-18T05:06:43.918Z,193.02
2022-10-18T05:09:11.082Z,105.82
2022-10-18T05:11:38.396Z,127.72
2022-10-18T05:14:05.637Z,88.10
2022-10-18T05:16:33.057Z,104.72
2022-10-18T05:19:00.185Z,114.65
2022-10-18T05:21:27.314Z,60.25
2022-10-18T05:23:57.271Z,55.40
2022-10-18T05:26:24.425Z,125.40
2022-10-18T05:28:51.641Z,184.80
2022-10-18T05:31:21.505Z,143.93
2022-10-18T05:33:48.629Z,163.47
2022-10-18T05:36:15.954Z,50.90
2022-10-18T05:38:45.193Z,67.45
2022-10-18T05:41:12.920Z,104.00
2022-10-18T05:43:40.765Z,150.63
2022-10-18T05:46:13.575Z,43.00
2022-10-18T05:48:43.895Z,39.45
2022-10-18T05:51:11.440Z,31.23
2022-10-18T05:53:38.586Z,29.20
2022-10-18T05:56:07.049Z,29.97
2022-10-18T05:58:34.529Z,32.30
2022-10-18T06:01:03.675Z,36.80
2022-10-18T06:03:31.262Z,27.75
2022-10-18T06:06:02.373Z,27.58
2022-10-18T06:08:29.913Z,38.40
2022-10-18T06:10:57.368Z,24.65
2022-10-18T06:13:24.755Z,25.38
2022-10-18T06:15:56.461Z,32.90
2022-10-18T06:18:23.617Z,29.47
2022-10-18T06:20:57.198Z,31.58
2022-10-18T06:23:24.648Z,23.07
2022-10-18T06:25:51.845Z,28.83
2022-10-18T06:28:19.246Z,26.97
2022-10-18T06:30:46.367Z,38.80
2022-10-18T06:33:13.480Z,35.67
2022-10-18T06:35:40.729Z,38.05
2022-10-18T06:38:07.869Z,19.13
2022-10-18T06:40:37.914Z,30.83
2022-10-18T06:43:20.065Z,34.60
2022-10-18T06:45:48.506Z,27.75
2022-10-18T06:48:16.473Z,37.53
2022-10-18T06:50:50.358Z,28.55
2022-10-18T06:53:17.458Z,31.00
2022-10-18T06:55:44.554Z,35.38
2022-10-18T06:58:11.724Z,30.65
2022-10-18T07:00:39.378Z,28.90
2022-10-18T07:03:08.740Z,36.00
2022-10-18T07:05:35.854Z,29.52
2022-10-18T07:08:03.797Z,27.77
2022-10-18T07:10:30.943Z,26.35
2022-10-18T07:13:13.576Z,31.07
2022-10-18T07:15:45.235Z,22.42
2022-10-18T07:18:12.361Z,24.60
2022-10-18T07:20:39.705Z,19.80
2022-10-18T07:23:08.498Z,20.52
2022-10-18T07:25:35.712Z,21.52
2022-10-18T07:28:02.854Z,24.23
2022-10-18T07:30:30.043Z,25.52
2022-10-18T07:32:57.149Z,21.73
2022-10-18T07:35:24.283Z,18.00
2022-10-18T07:37:52.313Z,18.57
2022-10-18T07:40:19.447Z,17.92
2022-10-18T07:42:46.586Z,18.55
2022-10-18T07:45:13.810Z,16.45
2022-10-18T07:47:41.432Z,15.32
2022-10-18T07:50:09.099Z,18.20
2022-10-18T07:52:36.213Z,17.43
2022-10-18T07:55:03.502Z,14.25
2022-10-18T07:57:30.914Z,17.08
2022-10-18T07:59:58.381Z,16.55
2022-10-18T08:02:25.648Z,16.37
2022-10-18T08:04:52.754Z,13.03
2022-10-18T08:07:19.933Z,12.60
2022-10-18T08:09:47.052Z,12.50
2022-10-18T08:12:15.477Z,9.40
2022-10-18T08:14:42.666Z,11.63
2022-10-18T08:17:09.888Z,11.13
2022-10-18T08:19:37.011Z,12.45
2022-10-18T08:22:04.158Z,11.90
2022-10-18T08:24:33.836Z,10.05
2022-10-18T08:27:00.975Z,11.73
2022-10-18T08:29:31.573Z,12.40
2022-10-18T08:31:59.026Z,14.43
2022-10-18T08:34:26.215Z,9.55
2022-10-18T08:36:53.459Z,11.50
2022-10-18T08:39:20.581Z,11.30
2022-10-18T08:42:35.590Z,11.73
2022-10-18T08:45:12.736Z,11.75
2022-10-18T08:47:49.037Z,12.65
2022-10-18T08:50:31.066Z,11.70
2022-10-18T08:53:19.226Z,14.98
2022-10-18T08:55:52.399Z,12.43
2022-10-18T08:58:23.203Z,13.52
2022-10-18T09:01:08.244Z,12.05
2022-10-18T09:04:03.047Z,13.23
2022-10-18T09:06:52.866Z,13.18
2022-10-18T09:09:24.034Z,13.20
2022-10-18T09:12:11.968Z,11.90
2022-10-18T09:15:03.871Z,15.25
2022-10-18T09:18:08.320Z,14.63
2022-10-18T09:20:50.682Z,11.80
2022-10-18T09:23:23.833Z,10.37
2022-10-18T09:26:13.736Z,11.98
2022-10-18T09:31:57.531Z,8.65
2022-10-18T09:34:33.915Z,10.02
2022-10-18T09:37:01.793Z,12.52
2022-10-18T09:39:33.543Z,7.00
2022-10-18T09:42:26.743Z,8.93
2022-10-18T09:45:00.227Z,8.45
2022-10-18T09:47:41.039Z,7.10
2022-10-18T09:50:36.939Z,8.10
2022-10-18T09:53:07.808Z,8.55
2022-10-18T09:55:41.851Z,7.63
2022-10-18T09:58:11.484Z,6.23
2022-10-18T10:00:48.282Z,7.15
2022-10-18T10:03:15.786Z,7.33
2022-10-18T10:05:44.021Z,7.90
2022-10-18T10:08:11.550Z,8.05
2022-10-18T10:10:40.257Z,8.35
2022-10-18T10:13:15.716Z,7.43
2022-10-18T10:15:53.163Z,7.95
2022-10-18T10:18:26.344Z,7.47
2022-10-18T10:21:03.041Z,6.82
2022-10-18T10:23:35.617Z,8.82
2022-10-18T10:26:07.328Z,9.40
2022-10-18T10:28:46.139Z,6.68
2022-10-18T10:31:24.898Z,7.83
2022-10-18T10:34:14.758Z,6.35
2022-10-18T10:36:50.156Z,9.63
2022-10-18T10:39:19.319Z,8.10
2022-10-18T10:41:55.663Z,6.83
2022-10-18T10:44:29.033Z,7.70
2022-10-18T10:46:57.800Z,7.30
2022-10-18T10:49:45.841Z,10.57
2022-10-18T10:52:28.912Z,10.35
2022-10-18T10:57:50.595Z,6.80
2022-10-18T11:00:44.316Z,7.67
2022-10-18T11:03:29.089Z,6.75
2022-10-18T11:06:00.897Z,6.28
2022-10-18T11:08:35.708Z,8.48
2022-10-18T11:11:27.734Z,6.90
2022-10-18T11:16:58.763Z,6.20
2022-10-18T11:19:39.975Z,7.68
2022-10-18T11:22:14.942Z,9.48
2022-10-18T11:24:42.326Z,7.32
2022-10-18T11:27:26.892Z,7.80
2022-10-18T11:30:05.125Z,6.85
2022-10-18T11:33:04.923Z,6.57
2022-10-18T11:35:41.218Z,8.90
2022-10-18T11:38:26.150Z,7.73
2022-10-18T11:41:24.777Z,7.97
2022-10-18T11:44:14.351Z,5.75
2022-10-18T11:46:52.400Z,7.83
2022-10-18T11:49:39.950Z,7.40
2022-10-18T11:53:01.554Z,7.72
2022-10-18T11:55:56.722Z,7.40
2022-10-18T11:58:55.762Z,5.50
2022-10-18T12:01:43.458Z,6.50
2022-10-18T12:04:33.313Z,7.53
2022-10-18T12:07:03.335Z,6.82
2022-10-18T12:09:39.375Z,4.85
2022-10-18T12:12:16.290Z,6.00
2022-10-18T12:14:49.321Z,7.93
2022-10-18T12:17:44.248Z,7.70
2022-10-18T12:20:21.458Z,6.55
2022-10-18T12:22:56.250Z,6.35
2022-10-18T12:25:28.638Z,6.93
2022-10-18T12:28:17.218Z,10.52
2022-10-18T12:30:59.506Z,8.73
2022-10-18T12:33:30.538Z,7.37
2022-10-18T12:36:06.386Z,9.27
2022-10-18T12:38:36.762Z,8.60
2022-10-18T12:41:05.567Z,10.40
2022-10-18T12:43:37.766Z,11.40
2022-10-18T12:46:13.005Z,10.43
2022-10-18T12:48:45.169Z,9.27
2022-10-18T12:51:22.255Z,10.73
2022-10-18T12:54:08.253Z,8.32
2022-10-18T12:56:43.262Z,8.93
2022-10-18T12:59:16.466Z,9.17
2022-10-18T13:01:55.243Z,8.90
2022-10-18T13:04:28.324Z,9.20
2022-10-18T13:06:58.410Z,8.77
2022-10-18T13:09:28.231Z,7.32
2022-10-18T13:12:10.271Z,7.65
2022-10-18T13:14:53.427Z,8.73
2022-10-18T13:17:55.862Z,7.80
2022-10-18T13:20:39.321Z,7.07
2022-10-18T13:23:21.535Z,9.27
2022-10-18T13:26:14.918Z,9.65
2022-10-18T13:29:11.300Z,7.15
2022-10-18T13:31:44.178Z,8.27
2022-10-18T13:34:30.173Z,8.73
2022-10-18T13:37:10.708Z,10.07
2022-10-18T13:39:40.023Z,7.53
2022-10-18T13:42:15.931Z,10.10
2022-10-18T13:44:44.593Z,7.90
2022-10-18T13:47:14.977Z,7.45
2022-10-18T13:50:03.230Z,7.65
2022-10-18T13:52:33.616Z,5.47
2022-10-18T13:55:19.952Z,5.78
2022-10-18T13:58:11.564Z,6.28
2022-10-18T14:01:20.249Z,6.23
2022-10-18T14:04:23.094Z,8.18
2022-10-18T14:06:51.949Z,7.95
2022-10-18T14:09:45.112Z,9.70
2022-10-18T14:12:31.191Z,6.53
2022-10-18T14:15:16.036Z,6.72
2022-10-18T14:18:04.644Z,9.05
2022-10-18T14:20:55.122Z,6.20
2022-10-18T14:23:35.352Z,6.78
2022-10-18T14:26:09.703Z,6.63
2022-10-18T14:28:55.542Z,6.90
2022-10-18T14:31:24.068Z,9.32
2022-10-18T14:33:58.363Z,9.18
2022-10-18T14:36:30.056Z,8.82
2022-10-18T14:39:02.976Z,8.18
2022-10-18T14:41:32.716Z,8.20
2022-10-18T14:44:15.169Z,7.72
2022-10-18T14:46:46.207Z,7.72
2022-10-18T14:49:14.559Z,7.85
2022-10-18T14:51:43.642Z,7.75
2022-10-18T14:54:19.997Z,7.82
2022-10-18T14:56:48.038Z,9.68
2022-10-18T14:59:22.702Z,8.32
2022-10-18T15:01:56.651Z,8.03
2022-10-18T15:04:30.921Z,9.82
2022-10-18T15:07:03.439Z,8.90
2022-10-18T15:09:32.479Z,8.52
2022-10-18T15:12:02.068Z,7.57
2022-10-18T15:14:30.092Z,8.23
2022-10-18T15:17:03.483Z,6.95
2022-10-18T15:19:34.146Z,9.38
2022-10-18T15:22:30.931Z,8.30
2022-10-18T15:25:06.238Z,9.02
2022-10-18T15:27:37.750Z,6.55
2022-10-18T15:30:14.777Z,8.57
2022-10-18T15:32:55.562Z,8.90
2022-10-18T15:35:28.834Z,7.53
2022-10-18T15:38:00.036Z,7.77
2022-10-18T15:40:33.513Z,9.73
2022-10-18T15:43:22.603Z,8.80
2022-10-18T15:45:52.628Z,8.98
2022-10-18T15:48:30.428Z,10.95
2022-10-18T15:51:04.701Z,10.93
2022-10-18T15:53:35.106Z,9.80
2022-10-18T15:56:07.280Z,11.93
2022-10-18T15:58:44.382Z,9.00
2022-10-18T16:01:25.176Z,8.48
2022-10-18T16:03:52.579Z,7.18
2022-10-18T16:06:19.847Z,9.15
2022-10-18T16:08:49.442Z,11.63
2022-10-18T16:11:22.881Z,8.38
2022-10-18T16:13:52.160Z,9.32
2022-10-18T16:16:22.525Z,8.80
2022-10-18T16:18:50.720Z,9.80
2022-10-18T16:21:25.483Z,11.32
2022-10-18T16:23:53.100Z,11.30
2022-10-18T16:26:21.393Z,9.00
2022-10-18T16:28:48.997Z,8.75
2022-10-18T16:31:22.673Z,10.37
2022-10-18T16:33:50.766Z,14.05
2022-10-18T16:36:21.199Z,9.50
2022-10-18T16:38:48.758Z,8.48
2022-10-18T16:41:16.703Z,9.50
2022-10-18T16:43:48.589Z,12.27
2022-10-18T16:46:23.544Z,10.80
2022-10-18T16:48:51.689Z,13.07
2022-10-18T16:51:18.916Z,12.68
2022-10-18T16:53:46.359Z,12.82
2022-10-18T16:56:19.624Z,11.40
2022-10-18T16:58:49.101Z,11.23
2022-10-18T17:01:18.653Z,11.38
2022-10-18T17:03:46.659Z,10.80
2022-10-18T17:06:23.174Z,10.93
2022-10-18T17:08:51.839Z,9.73
2022-10-18T17:11:20.268Z,10.60
2022-10-18T17:13:48.595Z,9.07
2022-10-18T17:16:23.850Z,11.93
2022-10-18T17:18:51.250Z,12.55
2022-10-18T17:21:18.800Z,12.77
2022-10-18T17:23:46.006Z,11.63
2022-10-18T17:26:30.943Z,11.95
2022-10-18T17:29:01.006Z,9.75
2022-10-18T17:31:29.286Z,10.32
2022-10-18T17:33:58.292Z,12.35
2022-10-18T17:36:25.904Z,14.10
2022-10-18T17:38:54.386Z,11.13
2022-10-18T17:41:21.766Z,12.75
2022-10-18T17:43:49.404Z,11.53
2022-10-18T17:46:17.864Z,10.40
2022-10-18T17:48:45.584Z,9.07
2022-10-18T17:51:15.176Z,9.82
2022-10-18T17:53:42.554Z,13.47
2022-10-18T17:56:10.842Z,11.93
2022-10-18T17:58:38.062Z,10.68
2022-10-18T18:01:17.706Z,9.80
2022-10-18T18:03:47.456Z,9.88
2022-10-18T18:06:33.416Z,11.55
2022-10-18T18:09:04.940Z,12.32
2022-10-18T18:11:32.600Z,11.98
2022-10-18T18:14:00.100Z,12.65
2022-10-18T18:16:29.554Z,10.90
2022-10-18T18:18:58.083Z,13.30
2022-10-18T18:21:26.356Z,10.88
2022-10-18T18:23:54.536Z,10.45
2022-10-18T18:26:22.591Z,13.52
2022-10-18T18:28:49.986Z,9.82
2022-10-18T18:31:20.096Z,16.40
2022-10-18T18:33:47.232Z,12.38
2022-10-18T18:36:14.408Z,12.52
2022-10-18T18:38:44.752Z,9.85
2022-10-18T18:41:23.933Z,11.77
2022-10-18T18:43:59.511Z,13.20
2022-10-18T18:46:29.136Z,11.57
2022-10-18T18:48:59.282Z,11.65
2022-10-18T18:51:26.604Z,13.07
2022-10-18T18:53:54.186Z,9.88
2022-10-18T18:56:23.673Z,14.73
2022-10-18T18:58:52.345Z,12.40
2022-10-18T19:01:22.423Z,12.23
2022-10-18T19:03:51.959Z,13.57
2022-10-18T19:06:28.212Z,14.52
2022-10-18T19:09:01.141Z,16.10
2022-10-18T19:11:31.116Z,12.27
2022-10-18T19:14:02.559Z,15.23
2022-10-18T19:16:34.087Z,14.80
2022-10-18T19:19:05.242Z,12.23
2022-10-18T19:21:35.047Z,15.77
2022-10-18T19:24:03.831Z,12.80
2022-10-18T19:26:38.779Z,14.98
2022-10-18T19:29:09.553Z,11.17
2022-10-18T19:31:40.072Z,13.15
2022-10-18T19:34:11.275Z,13.82
2022-10-18T19:36:40.356Z,15.85
2022-10-18T19:39:13.371Z,13.55
2022-10-18T19:41:40.530Z,12.03
2022-10-18T19:44:07.757Z,17.88
2022-10-18T19:46:34.882Z,15.00
2022-10-18T19:49:02.053Z,12.63
2022-10-18T19:51:29.206Z,14.55
2022-10-18T19:53:57.417Z,13.02
2022-10-18T19:56:26.410Z,10.63
2022-10-18T19:58:55.574Z,16.05
2022-10-18T20:01:23.279Z,11.52
2022-10-18T20:03:50.439Z,15.35
2022-10-18T20:06:17.623Z,10.97
2022-10-18T20:08:44.779Z,12.80
2022-10-18T20:11:18.024Z,14.65
2022-10-18T20:13:45.590Z,13.30
2022-10-18T20:16:14.502Z,12.80
2022-10-18T20:18:45.020Z,14.55
2022-10-18T20:21:15.015Z,12.40
2022-10-18T20:23:43.967Z,13.60
2022-10-18T20:26:17.950Z,16.17
2022-10-18T20:28:48.899Z,12.10
2022-10-18T20:31:18.386Z,14.30
2022-10-18T20:33:47.105Z,12.23
2022-10-18T20:36:16.785Z,12.45
2022-10-18T20:38:45.846Z,18.65
2022-10-18T20:41:19.987Z,11.95
2022-10-18T20:43:55.194Z,10.05
2022-10-18T20:46:22.693Z,12.95
2022-10-18T20:48:51.372Z,11.63
2022-10-18T20:51:19.022Z,10.97
2022-10-18T20:53:46.486Z,15.80
2022-10-18T20:56:20.380Z,11.25
2022-10-18T20:58:49.858Z,11.30
2022-10-18T21:01:22.794Z,14.90
2022-10-18T21:03:51.973Z,15.10
2022-10-18T21:06:27.820Z,12.40
2022-10-18T21:09:00.011Z,13.33
2022-10-18T21:11:28.959Z,11.75
2022-10-18T21:13:59.553Z,14.52
2022-10-18T21:16:27.297Z,12.73
2022-10-18T21:18:54.822Z,10.38
2022-10-18T21:21:24.435Z,10.02
2022-10-18T21:23:52.341Z,12.27
2022-10-18T21:26:22.245Z,11.50
2022-10-18T21:28:51.252Z,11.30
2022-10-18T21:31:23.490Z,8.75
2022-10-18T21:34:13.387Z,11.07
2022-10-18T21:36:42.211Z,9.75
2022-10-18T21:39:13.196Z,10.23
2022-10-18T21:41:40.714Z,10.40
2022-10-18T21:44:10.749Z,8.07
2022-10-18T21:46:39.353Z,9.48
2022-10-18T21:49:07.384Z,8.07
2022-10-18T21:51:35.228Z,10.60
2022-10-18T21:54:02.405Z,7.90
2022-10-18T21:56:32.192Z,9.35
2022-10-18T21:58:59.686Z,11.02
2022-10-18T22:01:38.204Z,8.48
2022-10-18T22:04:07.958Z,8.20
2022-10-18T22:06:36.235Z,8.75
2022-10-18T22:09:08.218Z,9.15
2022-10-18T22:11:39.664Z,10.40
2022-10-18T22:14:06.943Z,7.88
2022-10-18T22:16:34.093Z,7.53
2022-10-18T22:19:03.282Z,12.90
2022-10-18T22:21:30.904Z,11.10
2022-10-18T22:23:58.711Z,8.50
2022-10-18T22:26:27.508Z,12.95
2022-10-18T22:29:10.233Z,10.25
2022-10-18T22:31:40.094Z,8.93
2022-10-18T22:34:11.082Z,11.55
2022-10-18T22:36:38.367Z,8.83
2022-10-18T22:39:06.389Z,8.87
2022-10-18T22:41:34.646Z,10.43
2022-10-18T22:44:03.648Z,10.00
2022-10-18T22:46:32.824Z,7.55
2022-10-18T22:49:00.214Z,7.63
2022-10-18T22:51:27.494Z,10.07
2022-10-18T22:53:54.706Z,7.97
2022-10-18T22:56:22.842Z,11.10
2022-10-18T22:58:50.245Z,8.70
2022-10-18T23:01:20.741Z,9.90
2022-10-18T23:03:52.947Z,9.30
2022-10-18T23:06:31.803Z,9.48
2022-10-18T23:09:00.698Z,7.88
2022-10-18T23:11:28.721Z,10.80
2022-10-18T23:13:55.994Z,8.73
2022-10-18T23:16:23.942Z,8.23
2022-10-18T23:18:56.442Z,7.60
2022-10-18T23:21:25.618Z,6.45
2022-10-18T23:23:53.680Z,9.00
2022-10-18T23:26:22.989Z,7.90
2022-10-18T23:28:51.831Z,7.05
2022-10-18T23:31:20.836Z,10.15
2022-10-18T23:33:49.936Z,10.35
2022-10-18T23:36:17.515Z,6.75
2022-10-18T23:38:44.830Z,8.70
2022-10-18T23:41:13.542Z,11.40
2022-10-18T23:43:41.360Z,7.65
2022-10-18T23:46:08.978Z,9.43
2022-10-18T23:48:36.554Z,9.87
2022-10-18T23:51:04.410Z,9.77
2022-10-18T23:53:31.606Z,8.70
2022-10-18T23:56:04.150Z,9.15
2022-10-18T23:58:32.688Z,7.70
